Terminal Aerodrome Forecast
Issued by NWS

Home | Current Version | Previous Version | Graphics & Text | Print | Product List | Glossary On
Versions: 1 2 3 4 5 6 7 8 9 10 11 12 13 14 15 16 17
000
FTUS43 KMPX 291120
TAFAXN
TAF
KAXN 291120Z 2912/3012 06005KT P6SM SCT250
     FM291900 05010KT P6SM SCT150 BKN250
     FM300300 07006KT P6SM OVC150
     FM300700 06007KT P6SM OVC100=

USA.gov is the U.S. government's official web portal to all federal, state and local government web resources and services.